Time;durP1;ratioP1;P1;durP2;ratioP2;P2;SDS_P1;SDS_P2;PMS_P1;PMS_P2;Temp;Humidity;BMP_temperature;BMP_pressure;BME280_temperature;BME280_humidity;BME280_pressure;Samples;Min_cycle;Max_cycle;Signal;HPM_P1;HPM_P2
2021/08/01 00:02:13;;;;;;;9.38;5.30;;;15.70;99.90;;;;;;5120222;27;20123;-79
2021/08/01 00:04:39;;;;;;;11.57;6.07;;;15.70;99.90;;;;;;5120804;27;20114;-81
2021/08/01 00:07:05;;;;;;;11.00;5.68;;;15.70;99.90;;;;;;5126904;27;20577;-79
2021/08/01 00:09:31;;;;;;;9.75;5.80;;;15.60;99.90;;;;;;5122358;27;20071;-78
2021/08/01 00:11:57;;;;;;;;;;;15.60;99.90;;;;;;5121786;27;20503;-81
2021/08/01 00:14:23;;;;;;;10.20;5.20;;;15.60;99.90;;;;;;5133417;27;19968;-77
2021/08/01 00:16:48;;;;;;;;;;;15.60;99.90;;;;;;5125049;27;20040;-78
2021/08/01 00:19:14;;;;;;;10.82;6.35;;;15.50;99.90;;;;;;5126026;27;19922;-76
2021/08/01 00:21:40;;;;;;;;;;;15.60;99.90;;;;;;5130298;27;20066;-79
2021/08/01 00:24:07;;;;;;;11.88;6.22;;;15.50;99.90;;;;;;5134045;27;19965;-78
2021/08/01 00:26:33;;;;;;;11.52;5.90;;;15.50;99.90;;;;;;5118085;27;20067;-77
2021/08/01 00:28:59;;;;;;;14.15;6.30;;;15.50;99.90;;;;;;5124834;27;20039;-79
2021/08/01 00:31:25;;;;;;;;;;;15.40;99.90;;;;;;5120224;27;20036;-77
2021/08/01 00:33:51;;;;;;;12.38;5.93;;;15.40;99.90;;;;;;5125294;27;20280;-78
2021/08/01 00:36:16;;;;;;;11.73;6.25;;;15.30;99.90;;;;;;5117219;27;20043;-76
2021/08/01 00:38:42;;;;;;;11.10;6.40;;;15.30;99.90;;;;;;5118881;27;20491;-76
2021/08/01 00:41:08;;;;;;;;;;;15.10;99.90;;;;;;5127681;27;20051;-80
2021/08/01 00:43:34;;;;;;;9.55;6.25;;;15.20;99.90;;;;;;5123637;27;19922;-79
2021/08/01 00:46:00;;;;;;;10.43;6.50;;;15.20;99.90;;;;;;5125857;27;20028;-77
2021/08/01 00:48:26;;;;;;;;;;;15.10;99.90;;;;;;5123945;27;20047;-79
2021/08/01 00:50:53;;;;;;;11.82;6.40;;;15.00;99.90;;;;;;5118345;27;19916;-79
2021/08/01 00:53:19;;;;;;;10.48;6.10;;;15.00;99.90;;;;;;5117532;27;20098;-76
2021/08/01 00:55:45;;;;;;;11.75;6.70;;;15.00;99.90;;;;;;5115176;27;20063;-79
2021/08/01 00:58:11;;;;;;;12.23;6.90;;;14.90;99.90;;;;;;5124738;27;20104;-78
2021/08/01 01:03:23;;;;;;;14.48;6.57;;;14.80;99.90;;;;;;5130300;27;20031;-78
2021/08/01 01:06:01;;;;;;;10.57;6.72;;;14.80;99.90;;;;;;5132231;27;20121;-77
2021/08/01 01:08:42;;;;;;;13.20;6.82;;;14.80;99.90;;;;;;5119461;27;20469;-77
2021/08/01 01:11:09;;;;;;;11.80;6.85;;;14.80;99.90;;;;;;5125995;27;20035;-79
2021/08/01 01:13:40;;;;;;;10.95;6.85;;;14.80;99.90;;;;;;5131069;27;20035;-81
2021/08/01 01:16:06;;;;;;;12.38;7.05;;;14.90;99.90;;;;;;5113944;27;20150;-78
2021/08/01 01:18:46;;;;;;;12.18;6.63;;;14.90;99.90;;;;;;5125324;27;20500;-79
2021/08/01 01:21:11;;;;;;;11.38;6.50;;;15.00;99.90;;;;;;5132964;27;20416;-79
2021/08/01 01:23:46;;;;;;;12.68;7.18;;;15.00;99.90;;;;;;5132135;27;20038;-77
2021/08/01 01:26:38;;;;;;;11.38;7.03;;;15.00;99.90;;;;;;5132840;27;20133;-80
2021/08/01 01:29:20;;;;;;;9.68;6.93;;;15.00;99.90;;;;;;5128750;27;20070;-78
2021/08/01 01:31:46;;;;;;;12.38;6.32;;;15.00;99.90;;;;;;5127538;27;20043;-76
2021/08/01 01:34:23;;;;;;;12.63;6.93;;;14.90;99.90;;;;;;5123373;27;20038;-77
2021/08/01 01:36:52;;;;;;;10.93;6.55;;;14.90;99.90;;;;;;5130681;27;20480;-78
2021/08/01 01:39:18;;;;;;;13.60;6.82;;;14.90;99.90;;;;;;5127635;27;20039;-79
2021/08/01 01:41:46;;;;;;;12.73;7.15;;;14.90;99.90;;;;;;5128672;27;20122;-80
2021/08/01 01:44:12;;;;;;;11.85;6.95;;;14.80;99.90;;;;;;5126016;27;20063;-79
2021/08/01 01:46:40;;;;;;;11.70;7.80;;;14.80;99.90;;;;;;5131694;27;20114;-78
2021/08/01 01:49:08;;;;;;;14.45;7.57;;;14.80;99.90;;;;;;5127337;27;20047;-78
2021/08/01 01:51:35;;;;;;;14.43;7.68;;;14.80;99.90;;;;;;5132906;27;20035;-76
2021/08/01 01:54:02;;;;;;;13.23;7.82;;;14.80;99.90;;;;;;5131543;27;20039;-77
2021/08/01 01:56:34;;;;;;;12.70;8.43;;;14.90;99.90;;;;;;5127887;27;20540;-75
2021/08/01 01:59:01;;;;;;;14.13;7.32;;;14.90;99.90;;;;;;5129622;27;20456;-76
2021/08/01 02:01:27;;;;;;;11.50;7.60;;;14.90;99.90;;;;;;5117885;27;20448;-77
2021/08/01 02:03:53;;;;;;;14.60;7.80;;;14.90;99.90;;;;;;5127155;27;20086;-76
2021/08/01 02:06:19;;;;;;;;;;;14.90;99.90;;;;;;5119039;27;20047;-76
2021/08/01 02:08:54;;;;;;;15.52;7.82;;;14.80;99.90;;;;;;5131507;27;19963;-77
2021/08/01 02:11:23;;;;;;;15.47;7.97;;;14.80;99.90;;;;;;5120054;27;20047;-76
2021/08/01 02:14:16;;;;;;;14.07;7.80;;;14.90;99.90;;;;;;5131493;27;20123;-77
2021/08/01 02:16:47;;;;;;;13.30;8.23;;;14.80;99.90;;;;;;5130730;27;20067;-77
2021/08/01 02:19:15;;;;;;;14.57;8.00;;;14.80;99.90;;;;;;5121454;27;20043;-76
2021/08/01 02:21:43;;;;;;;15.02;8.52;;;14.90;99.90;;;;;;5131828;27;20057;-77
2021/08/01 02:24:09;;;;;;;13.07;8.00;;;14.90;99.90;;;;;;5130947;27;20043;-78
2021/08/01 02:26:38;;;;;;;13.35;7.68;;;14.90;99.90;;;;;;5120891;27;20043;-79
2021/08/01 02:29:05;;;;;;;17.05;8.82;;;14.90;99.90;;;;;;5128567;27;20027;-79
2021/08/01 02:31:32;;;;;;;17.73;8.63;;;14.80;99.90;;;;;;5125078;27;20080;-77
2021/08/01 02:33:57;;;;;;;13.77;8.52;;;14.90;99.90;;;;;;5122529;27;20039;-77
2021/08/01 02:36:25;;;;;;;14.05;8.60;;;14.90;99.90;;;;;;5132214;27;20108;-78
2021/08/01 02:38:58;;;;;;;15.95;9.60;;;14.90;99.90;;;;;;5130052;27;20039;-79
2021/08/01 02:41:24;;;;;;;17.35;9.77;;;14.90;99.90;;;;;;5132013;27;20059;-78
2021/08/01 02:43:50;;;;;;;17.23;9.88;;;14.90;99.90;;;;;;5130608;28;20460;-79
2021/08/01 02:46:26;;;;;;;15.93;9.02;;;14.90;99.90;;;;;;5122147;28;20035;-76
2021/08/01 02:48:55;;;;;;;17.90;10.48;;;14.90;99.90;;;;;;5129905;28;20092;-76
2021/08/01 02:51:23;;;;;;;16.00;10.45;;;14.90;99.90;;;;;;5132027;27;20038;-76
2021/08/01 02:53:53;;;;;;;16.95;10.55;;;14.90;99.90;;;;;;5131050;27;20039;-76
2021/08/01 02:56:20;;;;;;;15.35;10.20;;;14.90;99.90;;;;;;5132053;27;20047;-76
2021/08/01 02:58:52;;;;;;;16.73;10.70;;;14.90;99.90;;;;;;5131310;27;20063;-76
2021/08/01 03:01:18;;;;;;;18.30;10.55;;;14.90;99.90;;;;;;5130765;27;20031;-77
2021/08/01 03:03:45;;;;;;;;;;;14.90;99.90;;;;;;5131758;27;20062;-77
2021/08/01 03:06:14;;;;;;;16.17;10.02;;;14.80;99.90;;;;;;5128396;27;19919;-78
2021/08/01 03:08:40;;;;;;;17.50;11.38;;;14.80;99.90;;;;;;5132203;27;20043;-78
2021/08/01 03:11:06;;;;;;;17.60;11.13;;;14.80;99.90;;;;;;5130985;27;20035;-76
2021/08/01 03:13:32;;;;;;;15.30;10.88;;;14.80;99.90;;;;;;5131315;28;20038;-76
2021/08/01 03:15:57;;;;;;;;;;;14.80;99.90;;;;;;5128756;27;20035;-76
2021/08/01 03:18:23;;;;;;;21.15;11.65;;;14.80;99.90;;;;;;5103963;28;19962;-78
2021/08/01 03:20:49;;;;;;;17.02;10.65;;;14.90;99.90;;;;;;5132150;28;20035;-77
2021/08/01 03:23:15;;;;;;;16.52;11.10;;;14.90;99.90;;;;;;5129871;27;20050;-79
2021/08/01 03:25:41;;;;;;;;;;;14.90;99.90;;;;;;5132109;27;20043;-80
2021/08/01 03:28:08;;;;;;;18.65;13.60;;;14.90;99.90;;;;;;5123502;28;19923;-77
2021/08/01 03:30:34;;;;;;;19.98;12.63;;;14.90;99.90;;;;;;5131532;27;20417;-79
2021/08/01 03:33:01;;;;;;;;;;;14.90;99.90;;;;;;5131177;27;20039;-77
2021/08/01 03:35:26;;;;;;;23.52;13.00;;;14.90;99.90;;;;;;5135435;27;20026;-78
2021/08/01 03:37:52;;;;;;;19.65;13.23;;;14.90;99.90;;;;;;5117063;27;20031;-78
2021/08/01 03:40:18;;;;;;;20.50;13.27;;;14.90;99.90;;;;;;5134796;27;20404;-79
2021/08/01 03:42:44;;;;;;;19.92;13.73;;;14.90;99.90;;;;;;5130714;27;20035;-80
2021/08/01 03:45:10;;;;;;;;;;;14.90;99.90;;;;;;5135826;27;20039;-77
2021/08/01 03:47:37;;;;;;;23.48;14.57;;;14.90;99.90;;;;;;5133666;27;19926;-79
2021/08/01 03:50:03;;;;;;;23.10;14.65;;;14.90;99.90;;;;;;5121424;27;20088;-77
2021/08/01 03:52:29;;;;;;;24.17;14.05;;;14.90;99.90;;;;;;5134774;27;20039;-79
2021/08/01 03:54:55;;;;;;;25.20;14.90;;;14.90;99.90;;;;;;5136972;27;20095;-78
2021/08/01 03:57:21;;;;;;;;;;;14.90;99.90;;;;;;5131011;27;20035;-77
2021/08/01 03:59:47;;;;;;;26.70;15.93;;;14.80;99.90;;;;;;5129003;27;19919;-78
2021/08/01 04:02:12;;;;;;;23.35;14.40;;;14.80;99.90;;;;;;5117150;27;20028;-78
2021/08/01 04:04:40;;;;;;;23.25;14.02;;;14.90;99.90;;;;;;5131526;27;20266;-78
2021/08/01 04:07:06;;;;;;;23.85;15.18;;;14.90;99.90;;;;;;5129266;27;20046;-79
2021/08/01 04:09:32;;;;;;;22.98;14.80;;;15.00;99.90;;;;;;5135013;27;20031;-76
2021/08/01 04:11:58;;;;;;;;;;;14.90;99.90;;;;;;5134410;27;20058;-78
2021/08/01 04:14:25;;;;;;;26.58;15.55;;;14.80;99.90;;;;;;5134056;27;19960;-76
2021/08/01 04:16:54;;;;;;;27.10;16.40;;;14.80;99.90;;;;;;5120080;27;20032;-78
2021/08/01 04:19:20;;;;;;;27.88;16.10;;;14.90;99.90;;;;;;5109139;28;20392;-79
2021/08/01 04:21:46;;;;;;;27.75;17.20;;;14.90;99.90;;;;;;5117409;27;20040;-80
2021/08/01 04:24:12;;;;;;;27.20;15.95;;;14.90;99.90;;;;;;5131021;27;20031;-78
2021/08/01 04:26:38;;;;;;;23.83;15.55;;;14.90;99.90;;;;;;5132567;27;20151;-80
2021/08/01 04:29:06;;;;;;;28.63;17.58;;;14.90;99.90;;;;;;5133313;27;20039;-78
2021/08/01 04:31:32;;;;;;;26.83;15.82;;;15.00;99.90;;;;;;5132128;27;20031;-79
2021/08/01 04:33:58;;;;;;;;;;;15.00;99.90;;;;;;5133593;27;20035;-79
2021/08/01 04:36:23;;;;;;;26.45;17.17;;;15.00;99.90;;;;;;5134419;27;19916;-79
2021/08/01 04:38:49;;;;;;;26.67;15.65;;;15.00;99.90;;;;;;5135401;27;20042;-80
2021/08/01 04:41:15;;;;;;;25.15;15.95;;;15.00;99.90;;;;;;5133473;27;20392;-80
2021/08/01 04:43:41;;;;;;;29.20;16.50;;;15.00;99.90;;;;;;5131709;27;20434;-80
2021/08/01 04:46:07;;;;;;;28.95;15.90;;;15.10;99.90;;;;;;5132394;27;20043;-78
2021/08/01 04:48:32;;;;;;;25.92;15.93;;;15.20;99.90;;;;;;5122782;27;20047;-78
2021/08/01 04:50:58;;;;;;;;;;;15.20;99.90;;;;;;5123170;27;20039;-79
2021/08/01 04:53:24;;;;;;;26.10;15.68;;;15.20;99.90;;;;;;5133785;27;19954;-78
2021/08/01 04:55:50;;;;;;;;;;;15.30;99.90;;;;;;5125723;27;20032;-79
2021/08/01 04:58:17;;;;;;;24.35;15.45;;;15.30;99.90;;;;;;5132997;27;19915;-79
2021/08/01 05:00:43;;;;;;;;;;;15.30;99.90;;;;;;5127791;27;20031;-80
2021/08/01 05:03:09;;;;;;;24.83;15.60;;;15.30;99.90;;;;;;5132811;27;19919;-78
2021/08/01 05:05:36;;;;;;;;;;;15.40;99.90;;;;;;5135812;27;20084;-79
2021/08/01 05:08:02;;;;;;;21.77;13.82;;;15.40;99.90;;;;;;5132883;27;19989;-77
2021/08/01 05:10:29;;;;;;;22.88;14.65;;;15.50;99.90;;;;;;5123627;27;20043;-77
2021/08/01 05:12:54;;;;;;;;;;;15.50;99.90;;;;;;5119523;27;20400;-78
2021/08/01 05:15:20;;;;;;;22.67;14.15;;;15.50;99.90;;;;;;5129213;27;19981;-79
2021/08/01 05:17:46;;;;;;;;;;;15.60;99.90;;;;;;5130952;27;20039;-79
2021/08/01 05:20:12;;;;;;;24.60;13.95;;;15.60;99.90;;;;;;5130782;27;19938;-77
2021/08/01 05:22:38;;;;;;;22.00;14.52;;;15.60;99.90;;;;;;5128907;27;20058;-79
2021/08/01 05:25:05;;;;;;;23.83;13.02;;;15.70;99.90;;;;;;5126140;27;20067;-80
2021/08/01 05:27:31;;;;;;;23.38;12.48;;;15.70;99.90;;;;;;5118422;27;20038;-78
2021/08/01 05:29:57;;;;;;;23.45;13.52;;;15.70;99.90;;;;;;5132961;27;20035;-80
2021/08/01 05:32:23;;;;;;;15.88;11.50;;;15.70;99.90;;;;;;5132148;27;20035;-78
2021/08/01 05:34:49;;;;;;;20.95;11.98;;;15.70;99.90;;;;;;5133343;27;20369;-77
2021/08/01 05:37:15;;;;;;;16.75;11.40;;;15.70;99.90;;;;;;5133149;27;20039;-77
2021/08/01 05:39:40;;;;;;;16.83;11.18;;;15.80;99.90;;;;;;5127396;27;20031;-76
2021/08/01 05:42:06;;;;;;;18.17;12.05;;;15.80;99.90;;;;;;5119907;27;20039;-78
2021/08/01 05:44:33;;;;;;;;;;;15.80;99.90;;;;;;5134738;27;20033;-78
2021/08/01 05:46:59;;;;;;;16.60;10.73;;;15.80;99.90;;;;;;5132166;27;20288;-78
2021/08/01 05:49:25;;;;;;;17.10;11.50;;;15.80;99.90;;;;;;5133657;27;20424;-79
2021/08/01 05:51:51;;;;;;;14.75;11.15;;;15.80;99.90;;;;;;5126000;27;20169;-78
2021/08/01 05:54:17;;;;;;;;;;;15.90;99.90;;;;;;5131717;27;20516;-78
2021/08/01 05:56:42;;;;;;;16.00;10.98;;;15.90;99.90;;;;;;5130851;27;19915;-80
2021/08/01 05:59:08;;;;;;;;;;;16.00;99.90;;;;;;5132033;27;20031;-80
2021/08/01 06:01:37;;;;;;;13.02;9.63;;;16.10;99.90;;;;;;5121490;27;19915;-78
2021/08/01 06:04:03;;;;;;;13.60;9.13;;;16.20;99.90;;;;;;5127978;27;20035;-79
2021/08/01 06:06:28;;;;;;;13.90;9.75;;;16.20;99.90;;;;;;5133643;27;20494;-80
2021/08/01 06:08:56;;;;;;;;;;;16.40;99.90;;;;;;5146890;27;20458;-78
2021/08/01 06:11:22;;;;;;;13.40;10.20;;;16.30;99.90;;;;;;5134318;27;19915;-82
2021/08/01 06:13:48;;;;;;;;;;;16.40;99.90;;;;;;5133399;27;20035;-81
2021/08/01 06:16:15;;;;;;;11.77;8.83;;;16.40;99.90;;;;;;5132063;27;20410;-81
2021/08/01 06:18:42;;;;;;;15.55;9.48;;;16.50;99.90;;;;;;5129499;27;20371;-79
2021/08/01 06:21:14;;;;;;;14.52;10.27;;;16.50;99.90;;;;;;5132338;27;20031;-81
2021/08/01 06:23:43;;;;;;;15.10;9.98;;;16.60;99.90;;;;;;5130840;27;20038;-81
2021/08/01 06:26:10;;;;;;;17.10;11.30;;;16.70;99.90;;;;;;5130205;27;20039;-80
2021/08/01 06:28:36;;;;;;;21.50;11.48;;;16.80;99.90;;;;;;5129010;27;20084;-79
2021/08/01 06:31:04;;;;;;;17.33;11.10;;;16.80;99.90;;;;;;5128729;27;20561;-79
2021/08/01 06:33:31;;;;;;;16.38;10.77;;;16.90;99.90;;;;;;5123987;27;20426;-77
2021/08/01 06:35:57;;;;;;;14.93;11.18;;;16.90;99.90;;;;;;5129104;27;20393;-80
2021/08/01 06:38:23;;;;;;;;;;;16.90;99.90;;;;;;5114528;27;20458;-77
2021/08/01 06:40:49;;;;;;;15.77;11.63;;;16.90;99.90;;;;;;5123391;27;20322;-80
2021/08/01 06:43:15;;;;;;;18.48;12.00;;;16.90;99.90;;;;;;5125319;27;20358;-79
2021/08/01 06:45:41;;;;;;;18.13;12.27;;;16.90;99.90;;;;;;5118201;28;20050;-80
2021/08/01 06:48:07;;;;;;;;;;;17.00;99.90;;;;;;5125018;27;20733;-79
2021/08/01 06:50:36;;;;;;;20.60;13.77;;;16.90;99.90;;;;;;5118735;27;20006;-77
2021/08/01 06:53:03;;;;;;;20.65;14.18;;;17.00;99.90;;;;;;5121092;28;20035;-80
2021/08/01 06:55:30;;;;;;;21.50;14.80;;;17.00;99.90;;;;;;5121849;28;20078;-79
2021/08/01 06:57:56;;;;;;;21.48;15.00;;;17.10;99.90;;;;;;5123642;27;20050;-78
2021/08/01 07:00:22;;;;;;;;;;;17.10;99.90;;;;;;5114812;28;20036;-79
2021/08/01 07:02:58;;;;;;;25.20;16.08;;;17.20;99.90;;;;;;5122969;27;20385;-78
2021/08/01 07:05:26;;;;;;;24.55;15.57;;;17.20;99.90;;;;;;5117205;27;20043;-80
2021/08/01 07:07:52;;;;;;;20.88;14.35;;;17.30;99.90;;;;;;5127357;27;20035;-78
2021/08/01 07:10:18;;;;;;;;;;;17.30;99.90;;;;;;5124103;27;20031;-79
2021/08/01 07:12:45;;;;;;;19.23;13.63;;;17.30;99.90;;;;;;5116870;27;19926;-77
2021/08/01 07:15:13;;;;;;;20.67;13.55;;;17.40;99.90;;;;;;5124363;27;20066;-77
2021/08/01 07:17:39;;;;;;;18.92;13.52;;;17.30;99.90;;;;;;5115137;27;20048;-75
2021/08/01 07:20:09;;;;;;;18.38;13.57;;;17.40;99.90;;;;;;5124207;27;20043;-76
2021/08/01 07:22:35;;;;;;;17.95;13.13;;;17.40;99.90;;;;;;5132283;27;20730;-76
2021/08/01 07:25:01;;;;;;;16.75;12.18;;;17.50;99.90;;;;;;5130967;27;20077;-78
2021/08/01 07:27:27;;;;;;;17.70;11.50;;;17.60;99.90;;;;;;5121860;27;20423;-76
2021/08/01 07:29:53;;;;;;;;;;;17.70;99.90;;;;;;5130492;27;20045;-77
2021/08/01 07:32:20;;;;;;;13.55;11.07;;;17.80;99.90;;;;;;5117758;27;20292;-77
2021/08/01 07:34:47;;;;;;;;;;;18.10;99.90;;;;;;5125492;27;20043;-78
2021/08/01 07:37:13;;;;;;;;;;;18.20;99.90;;;;;;5119394;27;19915;-79
2021/08/01 07:39:39;;;;;;;10.48;8.60;;;18.40;99.90;;;;;;5130463;27;19919;-76
2021/08/01 07:42:05;;;;;;;;;;;18.70;99.90;;;;;;5131563;27;20512;-79
2021/08/01 07:44:35;;;;;;;12.27;9.07;;;18.90;99.90;;;;;;5123873;27;20715;-83
2021/08/01 07:47:01;;;;;;;11.35;7.57;;;19.20;99.90;;;;;;5121705;27;20040;-76
2021/08/01 07:49:27;;;;;;;;;;;19.20;99.90;;;;;;5124542;27;20035;-80
2021/08/01 07:51:53;;;;;;;7.13;5.50;;;19.30;99.90;;;;;;5125948;27;19915;-79
2021/08/01 07:54:18;;;;;;;;;;;19.30;99.90;;;;;;5113894;27;20043;-78
2021/08/01 07:56:44;;;;;;;6.00;4.63;;;19.10;99.90;;;;;;5122246;27;19919;-77
2021/08/01 07:59:10;;;;;;;;;;;18.80;99.90;;;;;;5114834;27;20035;-79
2021/08/01 08:01:35;;;;;;;7.55;4.78;;;18.50;99.90;;;;;;5123618;27;19919;-83
2021/08/01 08:04:01;;;;;;;;;;;18.10;99.90;;;;;;5134087;27;20035;-83
2021/08/01 08:06:27;;;;;;;11.45;5.30;;;17.70;99.90;;;;;;5127148;27;20022;-80
2021/08/01 08:08:52;;;;;;;;;;;17.30;99.90;;;;;;5125446;27;20045;-82
2021/08/01 08:11:18;;;;;;;6.57;5.25;;;17.00;99.90;;;;;;5126928;27;19919;-81
2021/08/01 08:13:44;;;;;;;;;;;16.70;99.90;;;;;;5121976;27;20032;-80
2021/08/01 08:16:09;;;;;;;8.40;5.30;;;16.50;99.90;;;;;;5126087;27;19973;-80
2021/08/01 08:18:35;;;;;;;14.68;7.78;;;16.30;99.90;;;;;;5121113;27;20084;-80
2021/08/01 08:21:01;;;;;;;;;;;16.10;99.90;;;;;;5131262;27;20035;-79
2021/08/01 08:23:27;;;;;;;5.38;2.65;;;16.00;99.90;;;;;;5120537;27;19919;-81
2021/08/01 08:25:56;;;;;;;5.90;2.90;;;15.90;99.90;;;;;;5122235;27;20035;-78
2021/08/01 08:28:22;;;;;;;6.93;3.60;;;15.80;99.90;;;;;;5122197;27;20483;-81
2021/08/01 08:30:48;;;;;;;8.20;3.97;;;15.70;99.90;;;;;;5124483;27;20070;-79
2021/08/01 08:33:14;;;;;;;7.00;3.85;;;15.70;99.90;;;;;;5123902;27;20035;-81
2021/08/01 08:35:40;;;;;;;7.90;3.30;;;15.70;99.90;;;;;;5111839;27;20096;-81
2021/08/01 08:38:06;;;;;;;;;;;15.80;99.90;;;;;;5116200;27;20142;-81
2021/08/01 08:40:39;;;;;;;6.60;3.75;;;15.80;99.90;;;;;;5127600;27;20419;-80
2021/08/01 08:43:05;;;;;;;5.60;3.33;;;15.90;99.90;;;;;;5119950;27;20042;-82
2021/08/01 08:45:32;;;;;;;5.53;3.30;;;15.90;99.90;;;;;;5118351;27;20043;-80
2021/08/01 08:47:59;;;;;;;6.40;3.72;;;16.00;99.90;;;;;;5123454;27;20075;-80
2021/08/01 08:50:25;;;;;;;8.25;4.32;;;16.10;99.90;;;;;;5124853;27;20046;-79
2021/08/01 08:52:55;;;;;;;;;;;16.30;99.90;;;;;;5126559;27;20410;-80
2021/08/01 08:55:24;;;;;;;5.35;3.53;;;16.50;99.90;;;;;;5118849;27;19919;-80
2021/08/01 08:57:53;;;;;;;6.03;2.88;;;16.70;99.90;;;;;;5116834;27;20103;-80
2021/08/01 09:00:21;;;;;;;6.68;3.67;;;16.80;99.90;;;;;;5119265;27;20035;-80
2021/08/01 09:02:48;;;;;;;5.95;2.88;;;16.90;99.90;;;;;;5124919;27;20040;-79
2021/08/01 09:05:14;;;;;;;3.90;2.80;;;16.90;99.90;;;;;;5117951;27;20057;-81
2021/08/01 09:07:40;;;;;;;;;;;16.90;99.90;;;;;;5127698;27;20118;-80
2021/08/01 09:10:08;;;;;;;5.00;2.47;;;16.80;99.90;;;;;;5128609;27;20064;-80
2021/08/01 09:12:45;;;;;;;4.60;2.17;;;16.60;99.90;;;;;;5125937;27;20062;-79
2021/08/01 09:15:15;;;;;;;2.53;1.60;;;16.50;99.90;;;;;;5125181;27;20159;-79
2021/08/01 09:17:42;;;;;;;3.95;2.50;;;16.30;99.90;;;;;;5129314;27;20073;-79
2021/08/01 09:20:30;;;;;;;2.88;1.75;;;16.30;99.90;;;;;;5131397;27;20104;-81
2021/08/01 09:23:02;;;;;;;4.55;2.08;;;16.20;99.90;;;;;;5123102;27;20054;-80
2021/08/01 09:25:31;;;;;;;4.05;1.75;;;16.20;99.90;;;;;;5125519;27;20089;-81
2021/08/01 09:28:18;;;;;;;5.40;1.77;;;16.20;99.90;;;;;;5113238;27;20335;-78
2021/08/01 09:31:04;;;;;;;3.97;1.90;;;16.40;99.90;;;;;;5119978;27;20381;-85
2021/08/01 09:33:37;;;;;;;2.40;1.50;;;16.50;99.90;;;;;;5122061;27;20047;-80
2021/08/01 09:36:11;;;;;;;4.47;1.90;;;16.80;99.90;;;;;;5112401;27;20039;-78
2021/08/01 09:39:00;;;;;;;8.50;1.98;;;17.00;99.90;;;;;;5115761;27;20441;-83
2021/08/01 09:41:31;;;;;;;2.90;1.40;;;17.30;99.90;;;;;;5120036;27;20040;-84
2021/08/01 09:44:02;;;;;;;2.45;1.50;;;17.50;99.90;;;;;;5115369;27;20031;-79
2021/08/01 09:46:42;;;;;;;2.92;1.50;;;17.80;99.90;;;;;;5108489;27;20035;-84
2021/08/01 09:49:17;;;;;;;4.07;1.80;;;17.90;99.90;;;;;;5109755;27;20047;-79
2021/08/01 09:51:45;;;;;;;3.35;1.52;;;18.00;99.90;;;;;;5123230;27;20163;-81
2021/08/01 09:54:11;;;;;;;4.28;1.70;;;17.90;99.90;;;;;;5121752;27;20031;-78
2021/08/01 09:56:38;;;;;;;2.33;1.20;;;17.90;99.90;;;;;;5119996;27;20589;-81
2021/08/01 09:59:17;;;;;;;4.60;1.30;;;17.80;99.90;;;;;;5121923;27;20395;-83
2021/08/01 10:01:49;;;;;;;2.42;1.17;;;17.70;99.90;;;;;;5127294;27;20472;-79
2021/08/01 10:04:24;;;;;;;2.63;1.20;;;17.80;99.90;;;;;;5127570;27;20219;-79
2021/08/01 10:07:10;;;;;;;2.08;1.17;;;18.00;99.90;;;;;;5124899;27;20433;-83
2021/08/01 10:09:41;;;;;;;2.80;1.33;;;18.20;99.90;;;;;;5117133;27;20139;-81
2021/08/01 10:12:08;;;;;;;2.45;1.25;;;18.40;99.90;;;;;;5117791;27;20532;-81
2021/08/01 10:14:35;;;;;;;3.05;1.23;;;18.60;99.90;;;;;;5116151;27;20106;-78
2021/08/01 10:17:01;;;;;;;2.72;1.42;;;18.80;99.90;;;;;;5124806;27;20062;-78
2021/08/01 10:19:27;;;;;;;;;;;19.00;99.90;;;;;;5119312;27;20296;-79
2021/08/01 10:21:57;;;;;;;2.08;1.20;;;19.00;99.90;;;;;;5122654;27;20310;-81
2021/08/01 10:24:31;;;;;;;3.08;1.40;;;19.00;99.90;;;;;;5115045;27;20039;-77
2021/08/01 10:27:03;;;;;;;3.90;1.30;;;19.10;99.90;;;;;;5121466;27;20043;-80
2021/08/01 10:29:36;;;;;;;2.30;1.17;;;19.00;99.90;;;;;;5125987;27;20031;-85
2021/08/01 10:32:08;;;;;;;2.22;1.30;;;18.90;99.90;;;;;;5121608;27;20408;-81
2021/08/01 10:34:52;;;;;;;3.78;1.48;;;19.20;99.90;;;;;;5121618;27;20086;-76
2021/08/01 10:37:25;;;;;;;3.10;1.75;;;19.40;99.90;;;;;;5118220;27;20053;-79
2021/08/01 10:39:52;;;;;;;2.90;1.42;;;19.40;99.90;;;;;;5126352;27;20122;-82
2021/08/01 10:42:23;;;;;;;3.55;1.77;;;19.20;99.90;;;;;;5117571;27;20420;-81
2021/08/01 10:44:49;;;;;;;2.72;1.33;;;19.00;99.90;;;;;;5119188;27;20047;-80
2021/08/01 10:47:16;;;;;;;2.78;1.30;;;18.70;99.90;;;;;;5121102;28;20083;-82
2021/08/01 10:49:47;;;;;;;2.83;1.23;;;18.60;99.90;;;;;;5115519;28;20035;-78
2021/08/01 10:52:16;;;;;;;6.22;1.80;;;18.80;99.90;;;;;;5123075;27;20050;-81
2021/08/01 10:55:03;;;;;;;2.90;1.70;;;19.20;99.90;;;;;;5119413;27;20046;-82
2021/08/01 10:57:29;;;;;;;4.68;1.83;;;19.60;99.90;;;;;;5129803;27;20035;-79
2021/08/01 10:59:58;;;;;;;4.07;1.60;;;19.70;99.90;;;;;;5120499;28;20133;-82
2021/08/01 11:02:25;;;;;;;2.53;1.50;;;19.70;99.90;;;;;;5124237;28;20043;-78
2021/08/01 11:04:52;;;;;;;4.05;1.90;;;19.70;99.90;;;;;;5114766;28;20035;-82
2021/08/01 11:07:26;;;;;;;2.95;1.60;;;19.90;99.90;;;;;;5098673;28;20047;-78
2021/08/01 11:10:07;;;;;;;3.08;1.80;;;20.00;99.90;;;;;;5118751;28;20138;-80
2021/08/01 11:12:38;;;;;;;3.47;2.08;;;20.00;99.90;;;;;;5127706;28;20042;-76
2021/08/01 11:15:06;;;;;;;10.32;1.90;;;20.30;99.90;;;;;;5130173;27;20039;-80
2021/08/01 11:17:46;;;;;;;2.85;1.70;;;20.30;99.90;;;;;;5125748;28;20047;-77
2021/08/01 11:20:32;;;;;;;2.38;1.60;;;20.40;99.90;;;;;;5132236;28;20165;-76
2021/08/01 11:23:00;;;;;;;3.42;1.90;;;20.30;99.90;;;;;;5128015;28;20063;-79
2021/08/01 11:26:04;;;;;;;4.32;1.98;;;20.00;99.90;;;;;;5119921;27;20073;-79
2021/08/01 11:28:32;;;;;;;2.90;1.90;;;19.70;99.90;;;;;;5126414;28;20036;-82
2021/08/01 11:30:58;;;;;;;3.75;1.70;;;19.50;99.90;;;;;;5119651;27;20036;-79
2021/08/01 11:33:33;;;;;;;;;;;19.50;99.90;;;;;;5124813;28;20046;-80
2021/08/01 11:36:12;;;;;;;4.65;1.88;;;19.80;99.90;;;;;;5117448;27;19923;-80
2021/08/01 11:38:47;;;;;;;4.05;1.65;;;20.10;99.90;;;;;;5119418;28;20641;-80
2021/08/01 11:41:25;;;;;;;3.08;1.70;;;20.30;99.90;;;;;;5120327;28;20047;-78
2021/08/01 11:44:23;;;;;;;5.63;2.35;;;20.40;99.90;;;;;;5103959;28;20093;-79
2021/08/01 11:47:02;;;;;;;3.05;1.80;;;20.60;99.90;;;;;;5111876;28;20453;-79
2021/08/01 11:49:34;;;;;;;2.83;1.58;;;20.70;99.90;;;;;;5125390;27;20122;-82
2021/08/01 11:52:05;;;;;;;2.95;1.60;;;20.60;99.90;;;;;;5116008;28;20039;-80
2021/08/01 11:54:42;;;;;;;2.95;1.55;;;20.60;99.90;;;;;;5120519;27;20071;-78
2021/08/01 11:57:12;;;;;;;3.00;1.40;;;20.50;99.90;;;;;;5122654;27;20477;-80
2021/08/01 11:59:39;;;;;;;3.30;1.50;;;20.50;99.90;;;;;;5125454;27;20036;-78
2021/08/01 12:02:11;;;;;;;2.20;1.70;;;20.40;99.90;;;;;;5122032;27;20035;-81
2021/08/01 12:04:38;;;;;;;3.45;1.40;;;20.20;99.90;;;;;;5121035;27;20038;-84
2021/08/01 12:07:05;;;;;;;2.70;1.55;;;20.20;99.90;;;;;;5128047;27;20035;-79
2021/08/01 12:09:38;;;;;;;3.67;1.77;;;20.10;99.90;;;;;;5117709;27;20436;-77
2021/08/01 12:12:06;;;;;;;4.75;2.10;;;20.20;99.90;;;;;;5118791;27;20027;-82
2021/08/01 12:14:34;;;;;;;3.70;1.90;;;20.20;99.90;;;;;;5129080;27;20034;-75
2021/08/01 12:17:03;;;;;;;4.10;1.92;;;20.20;99.90;;;;;;5122157;27;20047;-86
2021/08/01 12:19:37;;;;;;;3.60;1.70;;;20.20;99.90;;;;;;5120165;27;20088;-81
2021/08/01 12:22:17;;;;;;;4.22;1.92;;;20.10;99.90;;;;;;5123496;27;20031;-84
2021/08/01 12:24:49;;;;;;;3.35;1.85;;;20.20;99.90;;;;;;5130901;27;20035;-81
2021/08/01 12:27:24;;;;;;;6.15;1.77;;;20.40;99.90;;;;;;5124054;27;20058;-78
2021/08/01 12:29:53;;;;;;;3.42;1.90;;;20.50;99.90;;;;;;5119655;27;20043;-81
2021/08/01 12:32:28;;;;;;;3.65;1.88;;;20.60;99.90;;;;;;5129034;27;20085;-78
2021/08/01 12:35:17;;;;;;;4.15;1.70;;;20.40;99.90;;;;;;5126495;27;20046;-82
2021/08/01 12:38:00;;;;;;;3.45;1.60;;;20.50;99.90;;;;;;5121808;27;20035;-79
2021/08/01 12:40:33;;;;;;;2.72;1.60;;;20.60;99.90;;;;;;5111559;27;20370;-78
2021/08/01 12:43:05;;;;;;;3.20;1.75;;;20.80;99.90;;;;;;5114741;27;20499;-83
2021/08/01 12:45:33;;;;;;;3.28;1.70;;;21.00;99.90;;;;;;5132045;27;20039;-74
2021/08/01 12:48:00;;;;;;;3.70;1.83;;;21.30;99.90;;;;;;5139403;27;20055;-78
2021/08/01 12:50:27;;;;;;;2.80;1.50;;;21.40;99.90;;;;;;5132365;27;20054;-85
2021/08/01 12:52:53;;;;;;;2.97;1.73;;;21.40;99.90;;;;;;5129505;27;20039;-80
2021/08/01 12:55:22;;;;;;;5.32;1.95;;;21.50;99.90;;;;;;5124675;27;20044;-79
2021/08/01 12:58:07;;;;;;;4.55;1.98;;;21.40;99.90;;;;;;5130705;27;20080;-84
2021/08/01 13:00:38;;;;;;;4.28;1.80;;;21.30;99.90;;;;;;5124045;27;20425;-81
2021/08/01 13:03:06;;;;;;;3.97;1.65;;;21.30;99.90;;;;;;5124275;27;20035;-85